createdAt,value
2019-05-19T00:00:29.974Z,15.63
2019-05-19T00:02:59.568Z,16.40
2019-05-19T00:05:29.200Z,14.60
2019-05-19T00:07:58.744Z,15.30
2019-05-19T00:10:28.343Z,16.27
2019-05-19T00:12:57.878Z,15.17
2019-05-19T00:15:27.426Z,14.27
2019-05-19T00:17:57.038Z,14.33
2019-05-19T00:20:26.585Z,16.87
2019-05-19T00:22:56.175Z,15.23
2019-05-19T00:25:25.749Z,14.77
2019-05-19T00:27:55.282Z,14.17
2019-05-19T00:30:24.824Z,14.60
2019-05-19T00:32:54.368Z,15.03
2019-05-19T00:35:24.248Z,20.07
2019-05-19T00:37:53.851Z,14.63
2019-05-19T00:40:23.399Z,13.87
2019-05-19T00:42:52.954Z,14.97
2019-05-19T00:45:22.677Z,15.27
2019-05-19T00:47:52.230Z,15.87
2019-05-19T00:50:21.817Z,14.13
2019-05-19T00:52:51.390Z,14.13
2019-05-19T00:55:21.174Z,13.77
2019-05-19T00:57:52.122Z,14.90
2019-05-19T01:00:22.157Z,13.37
2019-05-19T01:02:51.710Z,13.47
2019-05-19T01:05:21.252Z,13.53
2019-05-19T01:07:50.832Z,12.73
2019-05-19T01:10:20.564Z,15.00
2019-05-19T01:12:50.198Z,12.03
2019-05-19T01:15:20.151Z,12.20
2019-05-19T01:17:49.693Z,13.63
2019-05-19T01:20:19.878Z,12.53
2019-05-19T01:22:49.416Z,14.43
2019-05-19T01:25:19.222Z,13.07
2019-05-19T01:27:48.779Z,12.60
2019-05-19T01:30:18.954Z,11.37
2019-05-19T01:32:48.498Z,11.83
2019-05-19T01:35:18.056Z,13.13
2019-05-19T01:37:47.688Z,10.83
2019-05-19T01:40:17.658Z,11.20
2019-05-19T01:42:47.209Z,12.43
2019-05-19T01:45:17.818Z,11.27
2019-05-19T01:47:47.388Z,12.50
2019-05-19T01:50:18.652Z,11.23
2019-05-19T01:52:48.703Z,11.47
2019-05-19T01:55:19.195Z,17.33
2019-05-19T01:57:48.773Z,11.43
2019-05-19T02:00:18.679Z,11.70
2019-05-19T02:02:48.207Z,12.33
2019-05-19T02:05:18.097Z,10.93
2019-05-19T02:07:47.629Z,11.90
2019-05-19T02:10:17.692Z,12.60
2019-05-19T02:12:47.250Z,12.07
2019-05-19T02:15:17.376Z,12.60
2019-05-19T02:17:46.923Z,15.77
2019-05-19T02:20:31.972Z,12.13
2019-05-19T02:22:49.481Z,11.67
2019-05-19T02:25:20.241Z,11.83
2019-05-19T02:27:49.795Z,9.80
2019-05-19T02:30:20.291Z,11.37
2019-05-19T02:32:49.846Z,12.17
2019-05-19T02:35:19.403Z,10.43
2019-05-19T02:37:48.975Z,10.73
2019-05-19T02:40:18.976Z,11.73
2019-05-19T02:42:50.793Z,10.23
2019-05-19T02:45:20.424Z,11.20
2019-05-19T02:47:52.030Z,11.30
2019-05-19T02:50:22.088Z,11.57
2019-05-19T02:52:52.783Z,16.60
2019-05-19T02:55:22.966Z,11.00
2019-05-19T02:57:53.573Z,11.90
2019-05-19T03:00:39.707Z,12.20
2019-05-19T03:03:09.456Z,11.87
2019-05-19T03:05:39.556Z,11.47
2019-05-19T03:08:09.121Z,13.07
2019-05-19T03:10:38.662Z,11.60
2019-05-19T03:13:08.269Z,11.07
2019-05-19T03:15:37.755Z,12.17
2019-05-19T03:18:07.695Z,12.17
2019-05-19T03:20:37.241Z,11.40
2019-05-19T03:23:06.789Z,10.97
2019-05-19T03:25:36.363Z,11.10
2019-05-19T03:28:06.082Z,11.43
2019-05-19T03:30:37.284Z,12.13
2019-05-19T03:33:17.146Z,12.13
2019-05-19T03:35:46.696Z,13.07
2019-05-19T03:38:16.261Z,15.00
2019-05-19T03:40:45.862Z,13.50
2019-05-19T03:43:15.442Z,12.40
2019-05-19T03:45:44.999Z,11.23
2019-05-19T03:48:14.540Z,11.77
2019-05-19T03:50:44.106Z,12.00
2019-05-19T03:53:13.642Z,12.13
2019-05-19T03:55:43.195Z,13.60
2019-05-19T03:58:12.834Z,13.50
2019-05-19T04:00:42.402Z,12.30
2019-05-19T04:03:11.928Z,12.47
2019-05-19T04:05:41.768Z,12.67
2019-05-19T04:08:11.361Z,11.73
2019-05-19T04:10:40.983Z,13.10
2019-05-19T04:13:10.543Z,11.40
2019-05-19T04:15:40.085Z,12.40
2019-05-19T04:18:09.959Z,12.93
2019-05-19T04:20:39.520Z,12.60
2019-05-19T04:23:09.142Z,11.27
2019-05-19T04:25:38.719Z,11.80
2019-05-19T04:28:08.278Z,11.97
2019-05-19T04:30:37.835Z,13.23
2019-05-19T04:33:07.363Z,13.00
2019-05-19T04:35:36.949Z,13.27
2019-05-19T04:38:06.479Z,12.43
2019-05-19T04:40:36.031Z,11.87
2019-05-19T04:43:05.956Z,12.30
2019-05-19T04:45:35.852Z,13.10
2019-05-19T04:48:09.459Z,13.77
2019-05-19T04:50:36.803Z,12.37
2019-05-19T04:53:06.363Z,14.33
2019-05-19T04:55:35.904Z,15.53
2019-05-19T04:58:05.818Z,15.27
2019-05-19T05:00:35.370Z,15.80
2019-05-19T05:03:04.966Z,16.20
2019-05-19T05:05:34.541Z,14.93
2019-05-19T05:08:04.081Z,15.30
2019-05-19T05:10:33.663Z,16.90
2019-05-19T05:13:03.237Z,17.87
2019-05-19T05:15:32.776Z,16.33
2019-05-19T05:18:02.340Z,17.47
2019-05-19T05:20:31.896Z,16.73
2019-05-19T05:23:02.385Z,18.90
2019-05-19T05:25:31.926Z,17.17
2019-05-19T05:28:01.514Z,18.67
2019-05-19T05:30:31.086Z,19.60
2019-05-19T05:33:00.663Z,18.63
2019-05-19T05:35:30.225Z,16.37
2019-05-19T05:37:59.771Z,19.70
2019-05-19T05:40:29.648Z,21.57
2019-05-19T05:42:59.215Z,20.20
2019-05-19T05:45:28.906Z,20.07
2019-05-19T05:47:58.489Z,20.97
2019-05-19T05:50:28.040Z,21.07
2019-05-19T05:52:57.907Z,23.07
2019-05-19T05:55:27.460Z,21.67
2019-05-19T05:57:57.019Z,21.27
2019-05-19T06:00:26.602Z,22.37
2019-05-19T06:02:56.146Z,21.57
2019-05-19T06:05:25.692Z,22.50
2019-05-19T06:07:55.239Z,23.53
2019-05-19T06:10:24.906Z,24.03
2019-05-19T06:12:54.436Z,21.30
2019-05-19T06:15:24.029Z,23.30
2019-05-19T06:17:53.609Z,22.07
2019-05-19T06:20:23.162Z,22.00
2019-05-19T06:22:56.883Z,21.83
2019-05-19T06:25:24.185Z,21.20
2019-05-19T06:27:53.707Z,22.27
2019-05-19T06:30:23.382Z,23.33
2019-05-19T06:32:54.624Z,21.20
2019-05-19T06:35:24.237Z,22.80
2019-05-19T06:37:53.780Z,23.97
2019-05-19T06:40:24.275Z,23.40
2019-05-19T06:42:53.874Z,24.20
2019-05-19T06:45:23.585Z,21.57
2019-05-19T06:47:53.174Z,22.67
2019-05-19T06:50:22.878Z,22.73
2019-05-19T06:52:52.777Z,24.43
2019-05-19T06:55:22.467Z,23.00
2019-05-19T06:57:51.953Z,22.77
2019-05-19T07:00:22.072Z,23.27
2019-05-19T07:02:51.619Z,21.20
2019-05-19T07:05:21.174Z,21.27
2019-05-19T07:07:50.750Z,20.93
2019-05-19T07:10:20.647Z,23.13
2019-05-19T07:12:50.201Z,22.67
2019-05-19T07:15:20.029Z,22.63
2019-05-19T07:17:49.656Z,21.97
2019-05-19T07:20:19.606Z,22.47
2019-05-19T07:22:49.200Z,21.50
2019-05-19T07:25:18.759Z,20.43
2019-05-19T07:27:49.237Z,18.87
2019-05-19T07:30:19.289Z,19.40
2019-05-19T07:32:48.857Z,18.20
2019-05-19T07:35:18.698Z,17.83
2019-05-19T07:37:48.746Z,18.67
2019-05-19T07:40:18.457Z,18.13
2019-05-19T07:42:48.099Z,17.67
2019-05-19T07:45:18.100Z,14.73
2019-05-19T07:47:47.708Z,14.37
2019-05-19T07:50:17.308Z,16.27
2019-05-19T07:52:46.901Z,15.87
2019-05-19T07:55:16.682Z,16.40
2019-05-19T07:57:46.285Z,16.00
2019-05-19T08:00:16.695Z,14.23
2019-05-19T08:02:47.917Z,14.30
2019-05-19T08:05:17.701Z,15.30
2019-05-19T08:07:47.328Z,14.77
2019-05-19T08:10:17.217Z,14.83
2019-05-19T08:12:53.943Z,14.00
2019-05-19T08:15:23.671Z,16.63
2019-05-19T08:17:53.233Z,12.10
2019-05-19T08:20:23.121Z,11.63
2019-05-19T08:22:52.682Z,11.53
2019-05-19T08:25:22.297Z,10.53
2019-05-19T08:27:52.091Z,11.77
2019-05-19T08:30:22.404Z,10.30
2019-05-19T08:32:52.162Z,10.20
2019-05-19T08:35:21.830Z,11.63
2019-05-19T08:37:52.797Z,11.83
2019-05-19T08:40:26.067Z,10.63
2019-05-19T08:42:55.724Z,10.60
2019-05-19T08:45:25.718Z,11.73
2019-05-19T08:47:55.285Z,10.73
2019-05-19T08:50:26.680Z,11.07
2019-05-19T08:52:56.393Z,10.87
2019-05-19T08:55:26.358Z,12.53
2019-05-19T08:57:56.975Z,10.37
2019-05-19T09:00:26.606Z,11.23
2019-05-19T09:02:56.216Z,11.40
2019-05-19T09:05:25.932Z,10.53
2019-05-19T09:07:55.681Z,11.80
2019-05-19T09:10:25.223Z,11.80
2019-05-19T09:12:54.777Z,12.30
2019-05-19T09:15:25.762Z,11.83
2019-05-19T09:17:55.499Z,11.73
2019-05-19T09:20:25.176Z,11.57
2019-05-19T09:22:54.867Z,10.77
2019-05-19T09:25:24.495Z,10.90
2019-05-19T09:27:54.065Z,11.67
2019-05-19T09:30:24.877Z,12.03
2019-05-19T09:32:54.451Z,10.00
2019-05-19T09:35:24.291Z,10.30
2019-05-19T09:37:55.234Z,12.63
2019-05-19T09:40:26.728Z,14.23
2019-05-19T09:42:56.272Z,12.50
2019-05-19T09:45:26.630Z,10.43
2019-05-19T09:47:56.198Z,11.93
2019-05-19T09:50:25.799Z,11.97
2019-05-19T09:52:56.745Z,10.33
2019-05-19T09:55:26.332Z,10.07
2019-05-19T09:57:55.996Z,10.40
2019-05-19T10:00:25.771Z,10.23
2019-05-19T10:02:55.384Z,10.50
2019-05-19T10:05:25.014Z,10.47
2019-05-19T10:07:54.587Z,9.90
2019-05-19T10:10:39.889Z,10.17
2019-05-19T10:13:09.695Z,11.90
2019-05-19T10:15:39.386Z,10.17
2019-05-19T10:18:09.302Z,10.83
2019-05-19T10:20:38.929Z,9.57
2019-05-19T10:23:08.834Z,9.47
2019-05-19T10:25:40.202Z,11.30
2019-05-19T10:28:09.871Z,12.63
2019-05-19T10:30:39.422Z,11.53
2019-05-19T10:33:09.385Z,10.77
2019-05-19T10:35:40.654Z,10.50
2019-05-19T10:38:10.220Z,11.33
2019-05-19T10:40:39.755Z,9.30
2019-05-19T10:43:09.499Z,9.77
2019-05-19T10:45:40.210Z,9.43
2019-05-19T10:48:10.153Z,10.70
2019-05-19T10:50:41.436Z,10.93
2019-05-19T10:53:11.111Z,10.23
2019-05-19T10:55:40.649Z,11.37
2019-05-19T10:58:10.484Z,10.57
2019-05-19T11:00:40.242Z,11.80
2019-05-19T11:03:10.261Z,12.13
2019-05-19T11:05:40.011Z,10.70
2019-05-19T11:08:11.704Z,10.43
2019-05-19T11:10:41.711Z,9.33
2019-05-19T11:13:11.305Z,11.50
2019-05-19T11:15:40.849Z,9.80
2019-05-19T11:18:10.775Z,9.90
2019-05-19T11:20:40.335Z,12.03
2019-05-19T11:23:12.157Z,8.33
2019-05-19T11:25:51.535Z,10.87
2019-05-19T11:28:14.879Z,8.73
2019-05-19T11:30:44.489Z,10.53
2019-05-19T11:33:14.374Z,10.43
2019-05-19T11:35:44.010Z,10.90
2019-05-19T11:38:13.628Z,10.03
2019-05-19T11:40:43.370Z,10.60
2019-05-19T11:43:13.011Z,10.77
2019-05-19T11:45:42.655Z,9.60
2019-05-19T11:48:12.272Z,9.50
2019-05-19T11:50:42.319Z,8.37
2019-05-19T11:53:12.112Z,7.07
2019-05-19T11:55:41.718Z,7.93
2019-05-19T11:58:11.969Z,8.47
2019-05-19T12:00:41.600Z,7.67
2019-05-19T12:03:13.853Z,8.53
2019-05-19T12:05:45.639Z,8.47
2019-05-19T12:08:19.977Z,9.87
2019-05-19T12:10:51.238Z,11.20
2019-05-19T12:13:21.164Z,11.10
2019-05-19T12:15:51.281Z,10.37
2019-05-19T12:18:21.460Z,8.77
2019-05-19T12:20:51.683Z,9.97
2019-05-19T12:23:23.214Z,9.80
2019-05-19T12:25:56.232Z,9.70
2019-05-19T12:28:26.347Z,11.10
2019-05-19T12:30:58.395Z,11.77
2019-05-19T12:33:29.634Z,10.37
2019-05-19T12:36:02.192Z,11.73
2019-05-19T12:38:33.008Z,12.00
2019-05-19T12:41:07.336Z,8.93
2019-05-19T12:43:38.126Z,9.00
2019-05-19T12:46:16.116Z,8.03
2019-05-19T12:48:41.305Z,8.40
2019-05-19T12:51:12.403Z,6.80
2019-05-19T12:53:42.622Z,6.90
2019-05-19T12:56:13.963Z,7.20
2019-05-19T12:58:43.788Z,7.33
2019-05-19T13:01:18.572Z,6.13
2019-05-19T13:03:53.729Z,6.80
2019-05-19T13:06:23.941Z,8.10
2019-05-19T13:09:00.060Z,9.50
2019-05-19T13:11:30.975Z,7.03
2019-05-19T13:14:06.516Z,6.23
2019-05-19T13:16:37.584Z,4.83
2019-05-19T13:19:09.058Z,9.03
2019-05-19T13:21:39.799Z,3.90
2019-05-19T13:24:11.704Z,4.60
2019-05-19T13:26:55.653Z,2.10
2019-05-19T13:29:13.749Z,1.87
2019-05-19T13:31:49.581Z,2.07
2019-05-19T13:34:23.833Z,2.67
2019-05-19T13:37:02.206Z,1.70
2019-05-19T13:39:33.069Z,3.00
2019-05-19T13:42:03.877Z,2.47
2019-05-19T13:44:34.593Z,2.43
2019-05-19T13:47:07.096Z,2.07
2019-05-19T13:49:48.527Z,2.43
2019-05-19T13:52:21.976Z,2.10
2019-05-19T13:54:52.644Z,3.47
2019-05-19T13:57:24.571Z,2.90
2019-05-19T13:59:54.707Z,2.40
2019-05-19T14:02:26.506Z,2.50
2019-05-19T14:04:56.410Z,3.77
2019-05-19T14:07:25.969Z,4.47
2019-05-19T14:09:57.606Z,2.80
2019-05-19T14:12:28.247Z,3.10
2019-05-19T14:14:59.309Z,4.97
2019-05-19T14:17:29.394Z,3.77
2019-05-19T14:19:59.745Z,2.97
2019-05-19T14:22:32.516Z,3.33
2019-05-19T14:25:02.498Z,2.87
2019-05-19T14:27:32.472Z,2.80
2019-05-19T14:30:04.234Z,2.80
2019-05-19T14:32:34.985Z,3.50
2019-05-19T14:35:07.115Z,3.33
2019-05-19T14:37:37.773Z,3.70
2019-05-19T14:40:09.311Z,2.90
2019-05-19T14:42:46.894Z,4.33
2019-05-19T14:45:18.374Z,4.03
2019-05-19T14:47:52.463Z,3.97
2019-05-19T14:50:23.729Z,4.03
2019-05-19T14:52:53.604Z,3.57
2019-05-19T14:55:23.408Z,3.10
2019-05-19T14:57:53.474Z,5.37
2019-05-19T15:00:26.912Z,2.20
2019-05-19T15:03:02.925Z,5.53
2019-05-19T15:05:35.347Z,2.77
2019-05-19T15:08:06.288Z,4.10
2019-05-19T15:10:35.911Z,3.87
2019-05-19T15:13:08.621Z,3.03
2019-05-19T15:15:39.447Z,2.43
2019-05-19T15:18:09.177Z,3.63
2019-05-19T15:20:39.404Z,3.00
2019-05-19T15:23:09.392Z,2.60
2019-05-19T15:25:39.008Z,2.83
2019-05-19T15:28:13.309Z,3.67
2019-05-19T15:30:43.268Z,3.33
2019-05-19T15:33:14.323Z,3.00
2019-05-19T15:35:44.531Z,2.13
2019-05-19T15:38:17.284Z,2.37
2019-05-19T15:40:47.658Z,1.90
2019-05-19T15:43:20.985Z,3.00
2019-05-19T15:45:51.091Z,2.60
2019-05-19T15:48:20.903Z,1.93
2019-05-19T15:50:53.620Z,2.30
2019-05-19T15:53:27.337Z,2.13
2019-05-19T15:56:01.081Z,4.57
2019-05-19T15:58:31.206Z,5.00
2019-05-19T16:01:01.804Z,4.77
2019-05-19T16:03:37.043Z,3.33
2019-05-19T16:06:06.672Z,2.43
2019-05-19T16:08:37.015Z,4.70
2019-05-19T16:11:08.253Z,2.37
2019-05-19T16:13:38.726Z,2.63
2019-05-19T16:16:11.862Z,2.27
2019-05-19T16:18:44.595Z,1.97
2019-05-19T16:21:31.632Z,2.43
2019-05-19T16:23:55.668Z,2.57
2019-05-19T16:26:26.257Z,2.77
2019-05-19T16:28:56.508Z,2.23
2019-05-19T16:31:29.492Z,3.43
2019-05-19T16:34:02.262Z,2.47
2019-05-19T16:36:32.656Z,2.97
2019-05-19T16:39:08.277Z,2.43
2019-05-19T16:41:38.118Z,2.07
2019-05-19T16:44:07.947Z,1.80
2019-05-19T16:46:37.703Z,2.27
2019-05-19T16:49:14.852Z,1.67
2019-05-19T16:51:53.145Z,2.47
2019-05-19T16:54:22.994Z,2.10
2019-05-19T16:56:53.578Z,2.30
2019-05-19T16:59:28.035Z,2.40
2019-05-19T17:01:58.783Z,2.10
2019-05-19T17:04:32.731Z,2.43
2019-05-19T17:07:11.560Z,2.47
2019-05-19T17:09:42.595Z,2.30
2019-05-19T17:12:15.184Z,2.53
2019-05-19T17:14:49.257Z,2.30
2019-05-19T17:17:20.989Z,3.40
2019-05-19T17:19:56.471Z,3.20
2019-05-19T17:22:26.777Z,2.30
2019-05-19T17:25:04.768Z,2.47
2019-05-19T17:27:36.336Z,2.50
2019-05-19T17:30:14.718Z,3.60
2019-05-19T17:32:45.995Z,2.30
2019-05-19T17:35:18.629Z,2.17
2019-05-19T17:37:49.357Z,2.57
2019-05-19T17:40:20.641Z,2.47
2019-05-19T17:42:50.968Z,2.77
2019-05-19T17:45:23.287Z,2.90
2019-05-19T17:48:08.830Z,2.10
2019-05-19T17:50:35.185Z,2.50
2019-05-19T17:53:05.333Z,2.00
2019-05-19T17:55:36.933Z,3.03
2019-05-19T17:58:07.353Z,1.90
2019-05-19T18:00:42.981Z,2.30
2019-05-19T18:03:14.157Z,2.53
2019-05-19T18:05:48.251Z,2.20
2019-05-19T18:08:19.274Z,2.50
2019-05-19T18:10:49.809Z,2.30
2019-05-19T18:13:20.945Z,3.60
2019-05-19T18:15:52.053Z,2.07
2019-05-19T18:18:26.875Z,2.50
2019-05-19T18:20:58.039Z,2.50
2019-05-19T18:23:29.980Z,3.07
2019-05-19T18:26:07.232Z,4.10
2019-05-19T18:28:38.179Z,2.70
2019-05-19T18:31:13.515Z,2.47
2019-05-19T18:33:49.261Z,2.90
2019-05-19T18:36:19.956Z,2.50
2019-05-19T18:38:50.593Z,2.50
2019-05-19T18:41:21.774Z,3.90
2019-05-19T18:43:56.205Z,2.60
2019-05-19T18:46:26.074Z,3.10
2019-05-19T18:49:10.977Z,2.30
2019-05-19T18:51:39.823Z,3.67
2019-05-19T18:54:10.506Z,2.33
2019-05-19T18:56:50.659Z,2.93
2019-05-19T18:59:22.008Z,1.93
2019-05-19T19:01:54.847Z,4.20
2019-05-19T19:04:25.599Z,2.90
2019-05-19T19:06:55.434Z,3.07
2019-05-19T19:09:25.262Z,4.53
2019-05-19T19:11:54.924Z,6.77
2019-05-19T19:14:27.532Z,7.97
2019-05-19T19:16:56.225Z,7.53
2019-05-19T19:19:28.578Z,6.00
2019-05-19T19:21:58.361Z,6.83
2019-05-19T19:24:29.206Z,5.27
2019-05-19T19:27:00.588Z,7.43
2019-05-19T19:29:30.349Z,6.97
2019-05-19T19:32:00.143Z,6.70
2019-05-19T19:34:29.913Z,7.63
2019-05-19T19:36:59.841Z,5.40
2019-05-19T19:39:29.750Z,6.87
2019-05-19T19:41:59.690Z,4.93
2019-05-19T19:44:29.639Z,8.40
2019-05-19T19:46:59.889Z,4.97
2019-05-19T19:49:30.141Z,6.87
2019-05-19T19:52:00.572Z,5.57
2019-05-19T19:54:30.798Z,7.20
2019-05-19T19:57:00.820Z,6.40
2019-05-19T19:59:30.497Z,7.63
2019-05-19T20:02:01.136Z,6.60
2019-05-19T20:04:31.087Z,6.67
2019-05-19T20:07:04.663Z,6.27
2019-05-19T20:09:34.406Z,5.40
2019-05-19T20:12:04.389Z,5.80
2019-05-19T20:14:34.653Z,5.00
2019-05-19T20:17:04.873Z,5.17
2019-05-19T20:19:34.916Z,5.73
2019-05-19T20:22:05.103Z,4.70
2019-05-19T20:24:35.183Z,3.73
2019-05-19T20:27:09.399Z,4.80
2019-05-19T20:29:39.817Z,4.20
2019-05-19T20:32:09.756Z,4.83
2019-05-19T20:34:39.683Z,3.93
2019-05-19T20:37:09.752Z,5.17
2019-05-19T20:39:39.509Z,3.70
2019-05-19T20:42:12.291Z,4.03
2019-05-19T20:44:42.385Z,5.13
2019-05-19T20:47:12.447Z,3.63
2019-05-19T20:49:45.450Z,3.73
2019-05-19T20:52:15.171Z,4.53
2019-05-19T20:54:45.073Z,3.73
2019-05-19T20:57:15.165Z,3.70
2019-05-19T20:59:45.107Z,3.53
2019-05-19T21:02:14.866Z,4.10
2019-05-19T21:04:45.259Z,4.90
2019-05-19T21:07:15.035Z,3.20
2019-05-19T21:09:45.051Z,3.73
2019-05-19T21:12:15.209Z,4.10
2019-05-19T21:14:44.949Z,3.80
2019-05-19T21:17:14.969Z,5.00
2019-05-19T21:19:45.132Z,3.97
2019-05-19T21:22:14.795Z,4.10
2019-05-19T21:24:44.810Z,4.47
2019-05-19T21:27:14.494Z,5.53
2019-05-19T21:29:44.618Z,4.73
2019-05-19T21:32:14.279Z,4.37
2019-05-19T21:34:44.301Z,5.03
2019-05-19T21:37:13.983Z,6.17
2019-05-19T21:39:43.786Z,4.37
2019-05-19T21:42:13.460Z,4.53
2019-05-19T21:44:43.401Z,5.43
2019-05-19T21:47:13.297Z,5.70
2019-05-19T21:49:43.521Z,5.20
2019-05-19T21:52:13.493Z,5.43
2019-05-19T21:54:43.393Z,5.80
2019-05-19T21:57:13.123Z,6.03
2019-05-19T21:59:42.849Z,7.87
2019-05-19T22:02:12.621Z,5.63
2019-05-19T22:04:42.462Z,7.67
2019-05-19T22:07:14.045Z,5.93
2019-05-19T22:09:43.808Z,7.13
2019-05-19T22:12:17.394Z,5.77
2019-05-19T22:14:47.385Z,5.07
2019-05-19T22:17:17.085Z,7.40
2019-05-19T22:19:47.072Z,6.23
2019-05-19T22:22:20.237Z,6.77
2019-05-19T22:24:50.133Z,5.03
2019-05-19T22:27:19.988Z,5.70
2019-05-19T22:29:52.113Z,5.93
2019-05-19T22:32:22.088Z,6.00
2019-05-19T22:34:52.083Z,6.13
2019-05-19T22:37:21.806Z,7.07
2019-05-19T22:39:54.698Z,5.80
2019-05-19T22:42:24.777Z,7.90
2019-05-19T22:44:54.680Z,6.30
2019-05-19T22:47:24.387Z,6.70
2019-05-19T22:49:54.198Z,6.00
2019-05-19T22:52:23.853Z,7.23
2019-05-19T22:54:53.585Z,6.63
2019-05-19T22:57:23.477Z,7.73
2019-05-19T22:59:53.138Z,7.03
2019-05-19T23:02:22.936Z,7.70
2019-05-19T23:04:52.519Z,7.37
2019-05-19T23:07:22.277Z,7.50
2019-05-19T23:09:53.111Z,7.57
2019-05-19T23:12:22.847Z,7.60
2019-05-19T23:14:55.886Z,7.47
2019-05-19T23:17:25.882Z,7.07
2019-05-19T23:19:55.589Z,6.80
2019-05-19T23:22:28.470Z,8.60
2019-05-19T23:24:58.269Z,8.10
2019-05-19T23:27:32.080Z,7.70
2019-05-19T23:30:01.840Z,8.40
2019-05-19T23:32:31.390Z,6.93
2019-05-19T23:35:01.244Z,7.90
2019-05-19T23:37:31.242Z,8.33
2019-05-19T23:40:01.452Z,7.43
2019-05-19T23:42:35.245Z,6.70
2019-05-19T23:45:08.427Z,6.70
2019-05-19T23:47:38.272Z,6.63
2019-05-19T23:50:08.325Z,7.30
2019-05-19T23:52:40.449Z,6.93
2019-05-19T23:55:10.294Z,6.87
2019-05-19T23:57:43.292Z,7.50
